Rio Frio, Texas
Current Conditions -  °F | °C
As of 3:15 AM on Friday 19 Dec 2014 (Local Time) from KUVA Reporting Station
Overcast Overcast  
Wind Chill: 55°   Ceiling: 800
Heat Index: 55°   Visibility: 10mi
Dew Point: 54°   Wind: 6mph
Humidity: 94%   Direction: 90°E
Pressure: 30.02"   Gusts: NA
Location:  29.64°N, 99.74°W
Report Text: KUVA 190915Z AUTO 09005KT 10SM OVC008 13/12 A3002 RMK AO2 LTG DSNT N T01300121
Loading
Personal Weather Stations






























Interactive Weather Map New forecast layout! Learn more

10-Day Weather Forecast

Advertisements
Track Severe Weather on mobile